createdAt,value
2023-02-25T00:02:03.110Z,96995.39
2023-02-25T00:04:32.889Z,96991.60
2023-02-25T00:07:20.880Z,96996.23
2023-02-25T00:09:53.414Z,96992.11
2023-02-25T00:12:21.452Z,96988.24
2023-02-25T00:14:49.552Z,96976.88
2023-02-25T00:17:18.743Z,96974.95
2023-02-25T00:19:47.134Z,96967.80
2023-02-25T00:22:15.181Z,96965.91
2023-02-25T00:24:43.287Z,96957.89
2023-02-25T00:27:11.299Z,96954.06
2023-02-25T00:29:40.376Z,96953.59
2023-02-25T00:32:08.542Z,96951.02
2023-02-25T00:35:28.914Z,96942.85
2023-02-25T00:38:03.954Z,96939.90
2023-02-25T00:40:40.565Z,96934.48
2023-02-25T00:43:08.755Z,96929.65
2023-02-25T00:45:39.649Z,96921.79
2023-02-25T00:48:08.422Z,96918.14
2023-02-25T00:50:39.764Z,96916.64
2023-02-25T00:53:09.012Z,96907.48
2023-02-25T00:55:37.031Z,96904.55
2023-02-25T00:58:05.041Z,96897.71
2023-02-25T01:00:46.425Z,96894.30
2023-02-25T01:03:19.496Z,96892.90
2023-02-25T01:05:50.586Z,96877.90
2023-02-25T01:08:20.159Z,96869.38
2023-02-25T01:10:48.225Z,96869.58
2023-02-25T01:13:20.528Z,96862.63
2023-02-25T01:15:48.680Z,96865.20
2023-02-25T01:18:20.767Z,96860.90
2023-02-25T01:20:51.558Z,96857.11
2023-02-25T01:23:20.368Z,96859.44
2023-02-25T01:25:50.813Z,96857.86
2023-02-25T01:28:19.098Z,96850.51
2023-02-25T01:30:47.770Z,96852.25
2023-02-25T01:33:16.326Z,96853.11
2023-02-25T01:35:45.493Z,96843.39
2023-02-25T01:38:13.515Z,96843.46
2023-02-25T01:40:41.691Z,96837.79
2023-02-25T01:43:16.903Z,96825.20
2023-02-25T01:45:45.102Z,96827.79
2023-02-25T01:48:18.333Z,96825.88
2023-02-25T01:50:55.350Z,96822.98
2023-02-25T01:53:30.630Z,96813.27
2023-02-25T01:55:58.956Z,96798.20
2023-02-25T01:58:27.047Z,96805.20
2023-02-25T02:00:56.530Z,96801.42
2023-02-25T02:03:37.367Z,96782.29
2023-02-25T02:06:12.993Z,96773.32
2023-02-25T02:08:42.758Z,96778.71
2023-02-25T02:11:11.615Z,96778.23
2023-02-25T02:13:44.165Z,96774.35
2023-02-25T02:16:37.183Z,96767.08
2023-02-25T02:19:14.546Z,96766.05
2023-02-25T02:22:00.715Z,96765.70
2023-02-25T02:24:40.953Z,96763.92
2023-02-25T02:27:14.959Z,96760.41
2023-02-25T02:29:58.905Z,96755.66
2023-02-25T02:32:55.699Z,96749.07
2023-02-25T02:35:27.890Z,96734.36
2023-02-25T02:38:26.804Z,96730.65
2023-02-25T02:41:04.374Z,96730.52
2023-02-25T02:43:41.667Z,96732.05
2023-02-25T02:46:12.803Z,96727.25
2023-02-25T02:48:49.115Z,96721.42
2023-02-25T02:51:22.033Z,96720.36
2023-02-25T02:53:54.573Z,96716.85
2023-02-25T02:56:25.112Z,96711.94
2023-02-25T02:58:59.470Z,96716.96
2023-02-25T03:01:32.852Z,96705.81
2023-02-25T03:04:06.233Z,96700.03
2023-02-25T03:06:40.896Z,96689.73
2023-02-25T03:09:18.875Z,96693.08
2023-02-25T03:11:47.067Z,96694.41
2023-02-25T03:14:15.955Z,96701.36
2023-02-25T03:16:59.919Z,96690.65
2023-02-25T03:19:45.641Z,96682.86
2023-02-25T03:22:15.994Z,96681.27
2023-02-25T03:25:06.666Z,96674.30
2023-02-25T03:27:39.504Z,96667.99
2023-02-25T03:30:31.817Z,96661.50
2023-02-25T03:33:16.533Z,96661.59
2023-02-25T03:35:46.330Z,96656.68
2023-02-25T03:38:18.351Z,96659.73
2023-02-25T03:40:47.810Z,96641.56
2023-02-25T03:43:28.073Z,96632.17
2023-02-25T03:45:58.358Z,96637.38
2023-02-25T03:48:27.072Z,96630.61
2023-02-25T03:51:03.547Z,96625.09
2023-02-25T03:53:48.237Z,96625.20
2023-02-25T03:56:20.805Z,96624.81
2023-02-25T03:58:49.271Z,96616.94
2023-02-25T04:01:28.263Z,96616.61
2023-02-25T04:03:56.427Z,96613.33
2023-02-25T04:06:25.672Z,96607.45
2023-02-25T04:08:54.733Z,96605.52
2023-02-25T04:11:23.351Z,96598.48
2023-02-25T04:13:51.515Z,96590.79
2023-02-25T04:16:21.920Z,96587.20
2023-02-25T04:18:55.468Z,96574.90
2023-02-25T04:21:32.200Z,96585.56
2023-02-25T04:24:00.426Z,96585.11
2023-02-25T04:26:28.515Z,96574.68
2023-02-25T04:28:57.324Z,96562.40
2023-02-25T04:31:25.760Z,96554.17
2023-02-25T04:33:53.922Z,96551.45
2023-02-25T04:36:29.038Z,96544.42
2023-02-25T04:38:57.899Z,96540.55
2023-02-25T04:41:29.801Z,96529.39
2023-02-25T04:44:04.050Z,96519.17
2023-02-25T04:46:35.775Z,96518.33
2023-02-25T04:49:04.067Z,96517.19
2023-02-25T04:51:35.632Z,96514.80
2023-02-25T04:54:04.178Z,96509.95
2023-02-25T04:56:32.282Z,96498.90
2023-02-25T04:59:00.580Z,96493.70
2023-02-25T05:01:28.886Z,96491.48
2023-02-25T05:03:57.569Z,96487.88
2023-02-25T05:06:26.017Z,96487.13
2023-02-25T05:08:58.999Z,96482.65
2023-02-25T05:11:28.194Z,96471.20
2023-02-25T05:13:57.455Z,96460.95
2023-02-25T05:16:27.264Z,96461.64
2023-02-25T05:18:55.452Z,96451.84
2023-02-25T05:21:26.076Z,96447.21
2023-02-25T05:23:54.550Z,96445.52
2023-02-25T05:26:24.296Z,96441.27
2023-02-25T05:28:54.246Z,96434.49
2023-02-25T05:31:24.849Z,96430.08
2023-02-25T05:33:53.178Z,96427.23
2023-02-25T05:36:21.740Z,96424.45
2023-02-25T05:38:55.359Z,96427.60
2023-02-25T05:41:23.410Z,96426.89
2023-02-25T05:43:51.549Z,96428.17
2023-02-25T05:46:19.827Z,96429.73
2023-02-25T05:48:49.077Z,96433.67
2023-02-25T05:51:18.914Z,96433.67
2023-02-25T05:53:48.190Z,96436.21
2023-02-25T05:56:19.440Z,96433.45
2023-02-25T05:58:48.781Z,96430.72
2023-02-25T06:01:22.911Z,96433.17
2023-02-25T06:03:52.644Z,96431.84
2023-02-25T06:06:24.784Z,96435.63
2023-02-25T06:08:53.231Z,96436.23
2023-02-25T06:11:29.190Z,96435.66
2023-02-25T06:13:58.376Z,96441.48
2023-02-25T06:16:30.500Z,96448.58
2023-02-25T06:19:02.501Z,96452.25
2023-02-25T06:21:34.099Z,96459.48
2023-02-25T06:24:05.301Z,96468.05
2023-02-25T06:26:35.519Z,96495.90
2023-02-25T06:29:04.036Z,96515.36
2023-02-25T06:31:34.765Z,96523.63
2023-02-25T06:34:03.433Z,96532.56
2023-02-25T06:36:32.327Z,96540.23
2023-02-25T06:39:00.414Z,96543.88
2023-02-25T06:41:28.562Z,96547.66
2023-02-25T06:43:56.951Z,96558.54
2023-02-25T06:46:26.089Z,96566.61
2023-02-25T06:48:54.732Z,96571.34
2023-02-25T06:51:23.219Z,96587.02
2023-02-25T06:53:53.133Z,96582.80
2023-02-25T06:56:22.735Z,96584.06
2023-02-25T06:58:53.175Z,96592.33
2023-02-25T07:01:21.372Z,96603.55
2023-02-25T07:03:49.925Z,96600.89
2023-02-25T07:06:18.289Z,96601.83
2023-02-25T07:08:46.713Z,96608.44
2023-02-25T07:11:18.121Z,96603.20
2023-02-25T07:13:49.549Z,96591.06
2023-02-25T07:16:17.667Z,96592.38
2023-02-25T07:18:51.140Z,96579.92
2023-02-25T07:21:20.076Z,96583.55
2023-02-25T07:23:48.095Z,96578.96
2023-02-25T07:27:13.565Z,96578.15
2023-02-25T07:29:41.673Z,96574.58
2023-02-25T07:32:09.809Z,96567.05
2023-02-25T07:34:39.216Z,96562.69
2023-02-25T07:37:07.451Z,96563.70
2023-02-25T07:39:35.990Z,96562.98
2023-02-25T07:42:04.068Z,96562.65
2023-02-25T07:44:34.004Z,96561.79
2023-02-25T07:47:02.118Z,96561.74
2023-02-25T07:49:30.247Z,96562.39
2023-02-25T07:51:58.633Z,96557.92
2023-02-25T07:54:26.732Z,96555.88
2023-02-25T07:56:54.810Z,96553.34
2023-02-25T07:59:23.407Z,96561.73
2023-02-25T08:01:55.276Z,96563.28
2023-02-25T08:04:24.667Z,96565.83
2023-02-25T08:06:52.975Z,96566.24
2023-02-25T08:09:21.624Z,96572.06
2023-02-25T08:11:49.718Z,96578.05
2023-02-25T08:14:17.786Z,96577.09
2023-02-25T08:16:45.832Z,96591.29
2023-02-25T08:19:13.823Z,96606.15
2023-02-25T08:21:43.059Z,96614.66
2023-02-25T08:24:13.488Z,96618.02
2023-02-25T08:26:42.590Z,96628.73
2023-02-25T08:29:10.618Z,96641.77
2023-02-25T08:31:39.434Z,96644.93
2023-02-25T08:34:07.744Z,96652.45
2023-02-25T08:36:37.409Z,96655.36
2023-02-25T08:39:05.968Z,96654.88
2023-02-25T08:41:35.202Z,96654.38
2023-02-25T08:44:03.188Z,96658.04
2023-02-25T08:46:31.907Z,96656.64
2023-02-25T08:49:01.022Z,96664.55
2023-02-25T08:51:34.578Z,96673.45
2023-02-25T08:54:05.596Z,96669.97
2023-02-25T08:56:35.273Z,96685.20
2023-02-25T08:59:04.022Z,96700.33
2023-02-25T09:01:45.009Z,96706.39
2023-02-25T09:04:16.027Z,96707.83
2023-02-25T09:06:44.470Z,96714.30
2023-02-25T09:09:13.480Z,96713.71
2023-02-25T09:11:41.961Z,96714.63
2023-02-25T09:14:10.627Z,96712.27
2023-02-25T09:16:41.068Z,96716.48
2023-02-25T09:19:10.963Z,96715.12
2023-02-25T09:21:43.166Z,96718.84
2023-02-25T09:24:11.785Z,96725.66
2023-02-25T09:26:39.863Z,96732.90
2023-02-25T09:29:08.768Z,96736.71
2023-02-25T09:31:37.800Z,96741.96
2023-02-25T09:34:08.122Z,96740.88
2023-02-25T09:36:36.921Z,96743.74
2023-02-25T09:39:10.591Z,96746.30
2023-02-25T09:42:03.531Z,96742.20
2023-02-25T09:44:34.279Z,96743.88
2023-02-25T09:47:06.459Z,96742.61
2023-02-25T09:50:01.439Z,96736.45
2023-02-25T09:52:38.657Z,96734.69
2023-02-25T09:55:23.589Z,96730.27
2023-02-25T09:58:03.087Z,96731.77
2023-02-25T10:00:32.046Z,96734.16
2023-02-25T10:03:05.032Z,96740.42
2023-02-25T10:05:44.492Z,96732.77
2023-02-25T10:08:41.917Z,96736.77
2023-02-25T10:11:12.799Z,96737.44
2023-02-25T10:13:44.905Z,96732.45
2023-02-25T10:16:38.943Z,96727.08
2023-02-25T10:19:13.430Z,96733.34
2023-02-25T10:22:36.919Z,96729.55
2023-02-25T10:25:14.785Z,96709.36
2023-02-25T10:27:47.875Z,96697.58
2023-02-25T10:30:22.960Z,96697.21
2023-02-25T10:32:51.080Z,96699.73
2023-02-25T10:35:25.755Z,96710.66
2023-02-25T10:37:54.828Z,96719.80
2023-02-25T10:40:24.581Z,96724.52
2023-02-25T10:42:54.736Z,96719.00
2023-02-25T10:45:28.271Z,96712.33
2023-02-25T10:48:19.013Z,96711.14
2023-02-25T10:51:06.536Z,96716.45
2023-02-25T10:53:34.747Z,96722.27
2023-02-25T10:56:07.066Z,96726.38
2023-02-25T10:58:57.863Z,96730.88
2023-02-25T11:01:29.430Z,96731.76
2023-02-25T11:04:02.845Z,96728.49
2023-02-25T11:06:36.005Z,96731.18
2023-02-25T11:09:06.942Z,96736.80
2023-02-25T11:11:38.684Z,96746.09
2023-02-25T11:14:14.739Z,96743.61
2023-02-25T11:16:44.126Z,96745.65
2023-02-25T11:19:25.469Z,96749.27
2023-02-25T11:21:53.749Z,96742.89
2023-02-25T11:24:33.672Z,96740.39
2023-02-25T11:27:02.459Z,96736.89
2023-02-25T11:29:36.469Z,96737.88
2023-02-25T11:32:12.228Z,96751.26
2023-02-25T11:35:10.401Z,96755.89
2023-02-25T11:37:43.182Z,96762.46
2023-02-25T11:40:24.357Z,96757.46
2023-02-25T11:43:05.009Z,96764.67
2023-02-25T11:45:38.613Z,96766.27
2023-02-25T11:48:19.865Z,96752.66
2023-02-25T11:51:04.107Z,96745.70
2023-02-25T11:53:44.984Z,96741.77
2023-02-25T11:56:17.233Z,96727.65
2023-02-25T11:59:01.991Z,96722.60
2023-02-25T12:02:01.512Z,96723.58
2023-02-25T12:04:57.665Z,96727.91
2023-02-25T12:08:12.581Z,96718.05
2023-02-25T12:11:06.384Z,96727.83
2023-02-25T12:14:11.390Z,96722.27
2023-02-25T12:16:59.401Z,96725.65
2023-02-25T12:19:34.045Z,96731.63
2023-02-25T12:22:02.037Z,96744.52
2023-02-25T12:24:38.409Z,96745.90
2023-02-25T12:27:18.614Z,96747.94
2023-02-25T12:30:17.032Z,96748.16
2023-02-25T12:33:15.507Z,96748.77
2023-02-25T12:36:03.686Z,96760.86
2023-02-25T12:38:47.431Z,96753.42
2023-02-25T12:44:37.830Z,96755.40
2023-02-25T12:47:14.917Z,96755.66
2023-02-25T12:50:09.269Z,96757.14
2023-02-25T12:52:41.065Z,96755.80
2023-02-25T12:55:26.121Z,96760.92
2023-02-25T12:58:22.500Z,96756.64
2023-02-25T13:01:06.072Z,96754.48
2023-02-25T13:03:54.415Z,96756.70
2023-02-25T13:06:23.227Z,96755.02
2023-02-25T13:09:01.130Z,96754.10
2023-02-25T13:12:10.543Z,96752.57
2023-02-25T13:14:40.720Z,96760.51
2023-02-25T13:17:19.938Z,96763.27
2023-02-25T13:20:07.032Z,96763.97
2023-02-25T13:22:44.680Z,96761.13
2023-02-25T13:25:40.704Z,96762.39
2023-02-25T13:28:11.675Z,96761.15
2023-02-25T13:30:49.625Z,96763.40
2023-02-25T13:33:18.310Z,96763.92
2023-02-25T13:35:56.045Z,96765.02
2023-02-25T13:38:33.438Z,96767.10
2023-02-25T13:41:14.479Z,96766.19
2023-02-25T13:44:07.943Z,96772.27
2023-02-25T13:46:43.432Z,96772.80
2023-02-25T13:49:43.934Z,96773.26
2023-02-25T13:52:30.856Z,96772.60
2023-02-25T13:55:06.134Z,96773.93
2023-02-25T13:57:54.239Z,96778.63
2023-02-25T14:00:37.253Z,96775.66
2023-02-25T14:03:24.238Z,96773.48
2023-02-25T14:05:52.335Z,96773.72
2023-02-25T14:08:26.816Z,96773.36
2023-02-25T14:11:17.031Z,96774.58
2023-02-25T14:13:48.876Z,96782.55
2023-02-25T14:16:20.046Z,96779.80
2023-02-25T14:19:17.611Z,96788.21
2023-02-25T14:22:12.143Z,96787.41
2023-02-25T14:24:42.467Z,96789.30
2023-02-25T14:27:29.375Z,96788.93
2023-02-25T14:30:29.764Z,96792.52
2023-02-25T14:33:04.689Z,96792.84
2023-02-25T14:35:52.202Z,96796.86
2023-02-25T14:38:46.810Z,96795.86
2023-02-25T14:41:26.845Z,96796.41
2023-02-25T14:43:57.396Z,96796.30
2023-02-25T14:46:31.356Z,96800.83
2023-02-25T14:49:21.098Z,96800.45
2023-02-25T14:52:01.575Z,96799.52
2023-02-25T14:54:38.654Z,96801.39
2023-02-25T14:57:21.798Z,96791.85
2023-02-25T15:00:25.627Z,96802.52
2023-02-25T15:03:02.828Z,96809.80
2023-02-25T15:06:04.892Z,96807.70
2023-02-25T15:08:46.292Z,96818.66
2023-02-25T15:11:39.143Z,96816.63
2023-02-25T15:14:21.792Z,96816.15
2023-02-25T15:16:52.785Z,96819.83
2023-02-25T15:19:27.641Z,96824.27
2023-02-25T15:22:11.915Z,96816.95
2023-02-25T15:24:40.869Z,96822.65
2023-02-25T15:27:48.603Z,96826.16
2023-02-25T15:30:23.517Z,96836.82
2023-02-25T15:32:59.552Z,96854.48
2023-02-25T15:35:36.535Z,96880.76
2023-02-25T15:38:40.206Z,96922.92
2023-02-25T15:41:26.807Z,96903.83
2023-02-25T15:44:00.320Z,96897.49
2023-02-25T15:46:34.835Z,96899.33
2023-02-25T15:49:22.108Z,96887.67
2023-02-25T15:51:51.600Z,96875.58
2023-02-25T15:54:28.969Z,96883.77
2023-02-25T15:57:01.420Z,96887.84
2023-02-25T15:59:44.109Z,96895.50
2023-02-25T16:02:30.578Z,96893.57
2023-02-25T16:04:59.249Z,96901.00
2023-02-25T16:07:39.291Z,96909.52
2023-02-25T16:10:15.869Z,96912.73
2023-02-25T16:12:46.240Z,96921.95
2023-02-25T16:15:26.450Z,96930.09
2023-02-25T16:17:56.591Z,96939.55
2023-02-25T16:20:28.497Z,96941.59
2023-02-25T16:22:57.757Z,96941.48
2023-02-25T16:25:42.649Z,96947.64
2023-02-25T16:28:26.805Z,96954.48
2023-02-25T16:31:14.847Z,96960.23
2023-02-25T16:33:53.279Z,96958.58
2023-02-25T16:36:30.318Z,96962.90
2023-02-25T16:39:12.684Z,96968.45
2023-02-25T16:41:43.133Z,96975.93
2023-02-25T16:44:18.430Z,96981.29
2023-02-25T16:46:49.884Z,96982.67
2023-02-25T16:49:21.282Z,96989.48
2023-02-25T16:51:49.452Z,96997.09
2023-02-25T16:54:21.016Z,97000.30
2023-02-25T16:56:52.681Z,97006.27
2023-02-25T16:59:21.814Z,97003.60
2023-02-25T17:01:59.244Z,97007.40
2023-02-25T17:04:31.575Z,97010.19
2023-02-25T17:07:20.162Z,97017.48
2023-02-25T17:09:55.424Z,97020.23
2023-02-25T17:12:41.397Z,97022.47
2023-02-25T17:15:29.223Z,97018.19
2023-02-25T17:18:26.876Z,97017.58
2023-02-25T17:21:03.911Z,97021.85
2023-02-25T17:23:38.797Z,97019.07
2023-02-25T17:26:06.876Z,97017.17
2023-02-25T17:28:36.965Z,97018.57
2023-02-25T17:31:14.203Z,97030.19
2023-02-25T17:34:00.905Z,97026.56
2023-02-25T17:36:35.988Z,97024.54
2023-02-25T17:39:06.483Z,97029.04
2023-02-25T17:41:35.768Z,97035.75
2023-02-25T17:44:04.350Z,97039.60
2023-02-25T17:46:39.475Z,97043.42
2023-02-25T17:49:21.749Z,97043.80
2023-02-25T17:52:17.077Z,97038.66
2023-02-25T17:54:47.170Z,97038.84
2023-02-25T17:57:17.673Z,97041.75
2023-02-25T18:00:04.357Z,97045.48
2023-02-25T18:02:40.426Z,97047.09
2023-02-25T18:05:12.648Z,97055.34
2023-02-25T18:07:43.423Z,97056.20
2023-02-25T18:10:44.939Z,97049.52
2023-02-25T18:13:29.282Z,97053.89
2023-02-25T18:16:22.411Z,97056.59
2023-02-25T18:18:51.940Z,97053.45
2023-02-25T18:21:20.415Z,97058.00
2023-02-25T18:23:48.782Z,97061.98
2023-02-25T18:26:22.244Z,97061.05
2023-02-25T18:28:51.617Z,97067.98
2023-02-25T18:31:22.653Z,97070.84
2023-02-25T18:33:50.966Z,97070.02
2023-02-25T18:36:26.778Z,97069.31
2023-02-25T18:38:57.784Z,97070.92
2023-02-25T18:41:26.681Z,97071.86
2023-02-25T18:43:54.794Z,97075.17
2023-02-25T18:46:23.781Z,97082.02
2023-02-25T18:48:52.325Z,97090.99
2023-02-25T18:51:20.754Z,97100.89
2023-02-25T18:53:50.744Z,97111.12
2023-02-25T18:56:18.909Z,97118.33
2023-02-25T18:58:47.251Z,97113.27
2023-02-25T19:01:24.061Z,97119.10
2023-02-25T19:03:53.952Z,97118.09
2023-02-25T19:06:22.243Z,97132.70
2023-02-25T19:08:50.540Z,97138.15
2023-02-25T19:11:24.354Z,97145.75
2023-02-25T19:13:53.205Z,97151.81
2023-02-25T19:16:23.498Z,97155.80
2023-02-25T19:18:51.891Z,97160.27
2023-02-25T19:21:20.918Z,97158.95
2023-02-25T19:23:53.945Z,97160.56
2023-02-25T19:26:22.457Z,97159.48
2023-02-25T19:28:51.267Z,97163.86
2023-02-25T19:31:19.459Z,97166.55
2023-02-25T19:33:47.674Z,97163.26
2023-02-25T19:36:15.798Z,97162.86
2023-02-25T19:38:43.817Z,97168.77
2023-02-25T19:41:14.479Z,97165.86
2023-02-25T19:43:42.710Z,97162.86
2023-02-25T19:46:10.822Z,97169.30
2023-02-25T19:48:38.931Z,97167.55
2023-02-25T19:51:08.191Z,97171.39
2023-02-25T19:53:36.615Z,97171.45
2023-02-25T19:56:08.101Z,97177.45
2023-02-25T19:58:36.641Z,97184.90
2023-02-25T20:01:05.946Z,97180.90
2023-02-25T20:03:35.767Z,97182.98
2023-02-25T20:06:12.943Z,97177.83
2023-02-25T20:08:43.083Z,97175.37
2023-02-25T20:11:11.319Z,97178.52
2023-02-25T20:13:39.436Z,97172.38
2023-02-25T20:16:09.541Z,97175.70
2023-02-25T20:18:37.739Z,97184.44
2023-02-25T20:21:06.150Z,97183.12
2023-02-25T20:23:35.090Z,97185.12
2023-02-25T20:26:08.416Z,97189.73
2023-02-25T20:28:36.858Z,97184.27
2023-02-25T20:31:11.516Z,97192.42
2023-02-25T20:33:39.971Z,97188.83
2023-02-25T20:36:23.342Z,97188.35
2023-02-25T20:39:12.982Z,97191.13
2023-02-25T20:41:44.781Z,97194.72
2023-02-25T20:44:13.286Z,97193.11
2023-02-25T20:46:44.404Z,97187.66
2023-02-25T20:49:14.708Z,97185.05
2023-02-25T20:51:44.944Z,97189.35
2023-02-25T20:54:14.145Z,97195.65
2023-02-25T20:56:50.788Z,97194.11
2023-02-25T20:59:19.416Z,97190.50
2023-02-25T21:01:47.480Z,97194.71
2023-02-25T21:04:15.741Z,97196.33
2023-02-25T21:06:44.334Z,97202.17
2023-02-25T21:09:16.939Z,97210.36
2023-02-25T21:11:45.299Z,97220.19
2023-02-25T21:14:13.371Z,97225.94
2023-02-25T21:16:41.749Z,97235.46
2023-02-25T21:19:10.112Z,97231.62
2023-02-25T21:21:38.241Z,97226.54
2023-02-25T21:24:07.742Z,97228.00
2023-02-25T21:26:39.491Z,97237.45
2023-02-25T21:29:08.157Z,97246.05
2023-02-25T21:31:37.435Z,97249.33
2023-02-25T21:34:06.710Z,97247.33
2023-02-25T21:36:35.942Z,97254.36
2023-02-25T21:39:04.228Z,97254.45
2023-02-25T21:41:32.375Z,97262.83
2023-02-25T21:44:04.054Z,97261.83
2023-02-25T21:46:32.444Z,97265.73
2023-02-25T21:49:00.648Z,97268.92
2023-02-25T21:51:29.119Z,97277.31
2023-02-25T21:53:59.011Z,97276.86
2023-02-25T21:56:27.735Z,97282.68
2023-02-25T21:58:57.034Z,97282.81
2023-02-25T22:01:28.435Z,97290.85
2023-02-25T22:03:56.709Z,97291.54
2023-02-25T22:06:26.220Z,97294.79
2023-02-25T22:08:55.501Z,97305.98
2023-02-25T22:11:26.311Z,97313.41
2023-02-25T22:14:01.276Z,97311.70
2023-02-25T22:16:29.803Z,97305.88
2023-02-25T22:18:58.883Z,97312.64
2023-02-25T22:21:29.711Z,97307.88
2023-02-25T22:23:59.125Z,97300.19
2023-02-25T22:26:32.017Z,97300.40
2023-02-25T22:29:05.155Z,97305.02
2023-02-25T22:31:34.417Z,97313.40
2023-02-25T22:34:03.062Z,97327.23
2023-02-25T22:36:31.159Z,97326.67
2023-02-25T22:39:00.002Z,97333.98
2023-02-25T22:41:29.284Z,97334.88
2023-02-25T22:43:58.125Z,97337.98
2023-02-25T22:46:28.399Z,97335.86
2023-02-25T22:48:56.704Z,97340.70
2023-02-25T22:51:26.221Z,97343.30
2023-02-25T22:53:54.415Z,97339.38
2023-02-25T22:56:22.888Z,97337.77
2023-02-25T22:58:51.424Z,97332.41
2023-02-25T23:01:21.126Z,97333.56
2023-02-25T23:03:51.611Z,97332.86
2023-02-25T23:06:34.227Z,97341.36
2023-02-25T23:09:10.847Z,97350.25
2023-02-25T23:11:42.837Z,97360.09
2023-02-25T23:14:11.898Z,97368.77
2023-02-25T23:16:41.726Z,97367.84
2023-02-25T23:19:16.012Z,97365.67
2023-02-25T23:21:46.316Z,97373.48
2023-02-25T23:24:16.529Z,97388.64
2023-02-25T23:26:45.314Z,97392.19
2023-02-25T23:29:13.813Z,97399.01
2023-02-25T23:31:44.634Z,97401.59
2023-02-25T23:34:15.093Z,97406.40
2023-02-25T23:36:43.814Z,97418.77
2023-02-25T23:39:12.769Z,97418.19
2023-02-25T23:41:40.924Z,97423.25
2023-02-25T23:44:11.498Z,97429.59
2023-02-25T23:46:39.751Z,97430.25
2023-02-25T23:49:07.920Z,97434.45
2023-02-25T23:51:36.373Z,97432.95
2023-02-25T23:54:05.954Z,97434.50
2023-02-25T23:56:34.311Z,97433.56
2023-02-25T23:59:03.645Z,97437.61
